Hlavní strana
METAR-TAF:

METAR-TAF

Letiště :

Trollhättan-Vänersborg, Švédsko

zeměpisná šířka: 58-19N, zeměpisná délka: 012-21E, výška: 41 m

Aktuální stav počasí

Zpráva byla vytvořena před 38 minutami, v 17:20 UTC
Severozápadní vítr 7 kt
Teplota 0°C
Vlhkost vzduchu 40%
Tlak 1017 hPa
Viditelnost 10 km a více

METAR: ESGT 071720Z AUTO 32007KT 9999 NCD 00/M12 Q1017

Čas: 18:58 (17:58 UTC)


TAF: chybějící

Stav a předpovědi počasí z více než 4 000 letišť (zprávy METAR a TAF).

Červené a žluté tečky na mapě představují dostupné meteorologické stanice.

Když kurzor umístíte na tečku, zobrazí se název stanice.

Pak kliknutím zobrazíte stav a předpověď počasí.

Chcete-li změnit mapu, kliknutím na zelené tlačítko se znaménkem +mapu přiblížíte, kliknutím na zelené tlačítko se znaménkem – mapu oddálíte a kliknutím na zelené šipky přejdete na sousední mapy.


METAR-TAF: